Skip Navigation LinksHome page > Weather > Current weather Skip Navigation Links

Current Weather

Sarh, Chad

For information only: do not use for flight planning or navigation.
Latest weather
Observation time Friday, June 23, 2017 9:00 PM WAT
Local time Friday, June 23, 2017 9:37 PM WAT
Flight conditions Visual Meteorological Conditions
Winds
Wind speed calm
Visibility 6.2 mi.
Sky condition
Ceiling unlimited
Sky clear
Temperature 72°F
Dewpoint 70°F
Altimeter 29.91 in.Hg
Derived measurements
Relative humidity 94%
Density altitude 1524 ft.
Remarks
Ceiling and visibility OK.
METAR FTTA 232000Z 00000KT CAVOK 22/21 Q1013

Settings

Location code

InnerDrive.Weather 4.0.6144.1 Release CLR 4.0.30319.36366
Copyright ©2015 Inner Drive Technology. All rights reserved. Portions Copyright ©1986-2015 David Braverman.

Find weather

Site navigation


Skip Navigation Links

Place info

Page info

PayPal - The safer, easier way to pay online!

Return home.

Copyright ©2017 Inner Drive Technology. Purveyors of fine, hand-crafted computer software. Page printed 2017-06-23T20:37:26 UTC.